sensor_id;sensor_type;location;lat;lon;timestamp;pressure;altitude;pressure_sealevel;temperature;humidity
56630;BME280;42502;40.732;-74.254;2022-07-03T00:00:25;100306.97;;;31.91;38.53
56630;BME280;42502;40.732;-74.254;2022-07-03T00:02:26;100311.06;;;31.90;38.68
56630;BME280;42502;40.732;-74.254;2022-07-03T00:04:27;100321.19;;;31.95;38.53
56630;BME280;42502;40.732;-74.254;2022-07-03T00:06:28;100312.66;;;31.91;38.60
56630;BME280;42502;40.732;-74.254;2022-07-03T00:08:31;100315.91;;;31.93;38.58
56630;BME280;42502;40.732;-74.254;2022-07-03T00:10:31;100319.47;;;31.97;38.31
56630;BME280;42502;40.732;-74.254;2022-07-03T00:12:32;100321.09;;;31.98;38.57
56630;BME280;42502;40.732;-74.254;2022-07-03T00:14:34;100312.88;;;32.00;38.25
56630;BME280;42502;40.732;-74.254;2022-07-03T00:16:35;100310.84;;;32.01;38.35
56630;BME280;42502;40.732;-74.254;2022-07-03T00:18:35;100306.66;;;32.05;38.58
56630;BME280;42502;40.732;-74.254;2022-07-03T00:20:48;100309.94;;;32.04;38.58
56630;BME280;42502;40.732;-74.254;2022-07-03T00:22:50;100318.78;;;32.10;38.70
56630;BME280;42502;40.732;-74.254;2022-07-03T00:24:53;100309.78;;;32.11;38.40
56630;BME280;42502;40.732;-74.254;2022-07-03T00:26:59;100312.19;;;32.13;38.56
56630;BME280;42502;40.732;-74.254;2022-07-03T00:29:03;100313.03;;;32.13;38.07
56630;BME280;42502;40.732;-74.254;2022-07-03T00:31:04;100312.19;;;32.13;38.18
56630;BME280;42502;40.732;-74.254;2022-07-03T00:33:05;100307.75;;;32.12;37.95
56630;BME280;42502;40.732;-74.254;2022-07-03T00:35:08;100306.88;;;32.15;38.13
56630;BME280;42502;40.732;-74.254;2022-07-03T00:37:10;100305.97;;;32.18;37.93
56630;BME280;42502;40.732;-74.254;2022-07-03T00:39:11;100295.78;;;32.17;38.18
56630;BME280;42502;40.732;-74.254;2022-07-03T00:41:25;100308.84;;;32.18;38.28
56630;BME280;42502;40.732;-74.254;2022-07-03T00:43:26;100315.25;;;32.22;38.00
56630;BME280;42502;40.732;-74.254;2022-07-03T00:45:28;100316.88;;;32.23;38.32
56630;BME280;42502;40.732;-74.254;2022-07-03T00:47:35;100323.41;;;32.23;38.25
56630;BME280;42502;40.732;-74.254;2022-07-03T00:49:37;100329.91;;;32.24;38.28
56630;BME280;42502;40.732;-74.254;2022-07-03T00:51:39;100325.44;;;32.23;37.94
56630;BME280;42502;40.732;-74.254;2022-07-03T00:53:41;100333.94;;;32.27;37.87
56630;BME280;42502;40.732;-74.254;2022-07-03T00:55:44;100333.94;;;32.27;37.88
56630;BME280;42502;40.732;-74.254;2022-07-03T00:57:47;100337.59;;;32.27;37.81
56630;BME280;42502;40.732;-74.254;2022-07-03T00:59:49;100345.28;;;32.30;38.24
56630;BME280;42502;40.732;-74.254;2022-07-03T01:02:04;100336.44;;;32.24;38.13
56630;BME280;42502;40.732;-74.254;2022-07-03T01:04:16;100343.59;;;32.33;38.07
56630;BME280;42502;40.732;-74.254;2022-07-03T01:06:18;100347.59;;;32.35;38.11
56630;BME280;42502;40.732;-74.254;2022-07-03T01:08:45;100345.19;;;32.34;38.30
56630;BME280;42502;40.732;-74.254;2022-07-03T01:11:03;100349.22;;;32.36;38.33
56630;BME280;42502;40.732;-74.254;2022-07-03T01:13:09;100346.69;;;32.38;38.20
56630;BME280;42502;40.732;-74.254;2022-07-03T01:15:20;100346.69;;;32.38;38.25
56630;BME280;42502;40.732;-74.254;2022-07-03T01:17:39;100334.63;;;32.31;37.96
56630;BME280;42502;40.732;-74.254;2022-07-03T01:19:45;100348.66;;;32.41;38.20
56630;BME280;42502;40.732;-74.254;2022-07-03T01:26:09;100342.06;;;32.45;38.30
56630;BME280;42502;40.732;-74.254;2022-07-03T01:28:16;100341.28;;;32.44;37.82
56630;BME280;42502;40.732;-74.254;2022-07-03T01:30:19;100349.84;;;32.44;38.18
56630;BME280;42502;40.732;-74.254;2022-07-03T01:32:25;100355.91;;;32.46;37.96
56630;BME280;42502;40.732;-74.254;2022-07-03T01:34:34;100360.84;;;32.46;38.19
56630;BME280;42502;40.732;-74.254;2022-07-03T01:36:36;100367.34;;;32.46;38.27
56630;BME280;42502;40.732;-74.254;2022-07-03T01:38:40;100371.38;;;32.49;37.98
56630;BME280;42502;40.732;-74.254;2022-07-03T01:40:42;100373.44;;;32.48;38.13
56630;BME280;42502;40.732;-74.254;2022-07-03T01:42:44;100364.41;;;32.50;37.94
56630;BME280;42502;40.732;-74.254;2022-07-03T01:44:47;100365.31;;;32.47;37.85
56630;BME280;42502;40.732;-74.254;2022-07-03T01:46:51;100379.16;;;32.48;37.78
56630;BME280;42502;40.732;-74.254;2022-07-03T01:48:54;100385.56;;;32.52;38.07
56630;BME280;42502;40.732;-74.254;2022-07-03T01:50:56;100382.38;;;32.50;37.90
56630;BME280;42502;40.732;-74.254;2022-07-03T01:53:02;100383.16;;;32.51;37.79
56630;BME280;42502;40.732;-74.254;2022-07-03T01:55:04;100394.97;;;32.53;38.21
56630;BME280;42502;40.732;-74.254;2022-07-03T01:57:05;100393.72;;;32.54;37.73
56630;BME280;42502;40.732;-74.254;2022-07-03T01:59:06;100385.66;;;32.49;37.83
56630;BME280;42502;40.732;-74.254;2022-07-03T02:01:28;100402.28;;;32.54;37.95
56630;BME280;42502;40.732;-74.254;2022-07-03T02:03:33;100401.88;;;32.55;37.88
56630;BME280;42502;40.732;-74.254;2022-07-03T02:05:47;100402.66;;;32.56;38.13
56630;BME280;42502;40.732;-74.254;2022-07-03T02:08:11;100399.00;;;32.55;37.76
56630;BME280;42502;40.732;-74.254;2022-07-03T02:10:16;100393.63;;;32.57;37.87
56630;BME280;42502;40.732;-74.254;2022-07-03T02:12:19;100388.72;;;32.58;37.79
56630;BME280;42502;40.732;-74.254;2022-07-03T02:14:31;100401.78;;;32.59;37.96
56630;BME280;42502;40.732;-74.254;2022-07-03T02:19:02;100396.94;;;32.56;37.71
56630;BME280;42502;40.732;-74.254;2022-07-03T02:21:14;100397.75;;;32.56;37.99
56630;BME280;42502;40.732;-74.254;2022-07-03T02:23:16;100412.75;;;32.61;37.85
56630;BME280;42502;40.732;-74.254;2022-07-03T02:25:26;100415.63;;;32.61;37.86
56630;BME280;42502;40.732;-74.254;2022-07-03T02:27:40;100417.25;;;32.62;37.97
56630;BME280;42502;40.732;-74.254;2022-07-03T02:29:56;100414.38;;;32.62;37.59
56630;BME280;42502;40.732;-74.254;2022-07-03T02:32:03;100417.25;;;32.62;37.43
56630;BME280;42502;40.732;-74.254;2022-07-03T02:34:05;100421.69;;;32.63;37.73
56630;BME280;42502;40.732;-74.254;2022-07-03T02:36:10;100420.09;;;32.62;37.70
56630;BME280;42502;40.732;-74.254;2022-07-03T02:38:16;100423.41;;;32.60;37.58
56630;BME280;42502;40.732;-74.254;2022-07-03T02:42:35;100425.38;;;32.63;37.80
56630;BME280;42502;40.732;-74.254;2022-07-03T02:44:51;100420.56;;;32.60;37.45
56630;BME280;42502;40.732;-74.254;2022-07-03T02:47:43;100422.13;;;32.61;37.84
56630;BME280;42502;40.732;-74.254;2022-07-03T02:50:01;100426.97;;;32.64;37.37
56630;BME280;42502;40.732;-74.254;2022-07-03T02:54:45;100424.50;;;32.66;37.53
56630;BME280;42502;40.732;-74.254;2022-07-03T02:57:06;100421.69;;;32.63;37.38
56630;BME280;42502;40.732;-74.254;2022-07-03T02:59:14;100415.53;;;32.64;37.03
56630;BME280;42502;40.732;-74.254;2022-07-03T03:03:31;100425.75;;;32.65;37.66
56630;BME280;42502;40.732;-74.254;2022-07-03T03:05:41;100422.53;;;32.63;37.54
56630;BME280;42502;40.732;-74.254;2022-07-03T03:10:02;100411.47;;;32.65;37.28
56630;BME280;42502;40.732;-74.254;2022-07-03T03:12:04;100412.66;;;32.64;37.64
56630;BME280;42502;40.732;-74.254;2022-07-03T03:14:11;100410.63;;;32.65;37.32
56630;BME280;42502;40.732;-74.254;2022-07-03T03:16:14;100400.88;;;32.62;37.04
56630;BME280;42502;40.732;-74.254;2022-07-03T03:18:21;100406.94;;;32.64;37.26
56630;BME280;42502;40.732;-74.254;2022-07-03T03:20:28;100409.81;;;32.64;37.08
56630;BME280;42502;40.732;-74.254;2022-07-03T03:25:19;100414.81;;;32.60;37.14
56630;BME280;42502;40.732;-74.254;2022-07-03T03:27:21;100427.78;;;32.65;36.84
56630;BME280;42502;40.732;-74.254;2022-07-03T03:29:22;100422.91;;;32.65;36.91
56630;BME280;42502;40.732;-74.254;2022-07-03T03:31:23;100422.91;;;32.65;37.32
56630;BME280;42502;40.732;-74.254;2022-07-03T03:33:24;100425.75;;;32.65;36.87
56630;BME280;42502;40.732;-74.254;2022-07-03T03:35:25;100416.41;;;32.61;37.16
56630;BME280;42502;40.732;-74.254;2022-07-03T03:37:26;100422.06;;;32.65;37.26
56630;BME280;42502;40.732;-74.254;2022-07-03T03:39:27;100422.13;;;32.61;36.99
56630;BME280;42502;40.732;-74.254;2022-07-03T03:41:28;100423.75;;;32.62;37.05
56630;BME280;42502;40.732;-74.254;2022-07-03T03:43:33;100431.09;;;32.63;37.04
56630;BME280;42502;40.732;-74.254;2022-07-03T03:45:34;100427.78;;;32.65;37.13
56630;BME280;42502;40.732;-74.254;2022-07-03T03:47:34;100428.69;;;32.62;37.03
56630;BME280;42502;40.732;-74.254;2022-07-03T03:49:35;100432.78;;;32.61;37.16
56630;BME280;42502;40.732;-74.254;2022-07-03T03:51:36;100437.59;;;32.64;36.79
56630;BME280;42502;40.732;-74.254;2022-07-03T03:53:39;100436.81;;;32.63;37.22
56630;BME280;42502;40.732;-74.254;2022-07-03T03:56:12;100449.16;;;32.60;36.90
56630;BME280;42502;40.732;-74.254;2022-07-03T03:58:16;100448.31;;;32.59;36.94
56630;BME280;42502;40.732;-74.254;2022-07-03T04:00:17;100460.50;;;32.64;36.61
56630;BME280;42502;40.732;-74.254;2022-07-03T04:02:18;100462.56;;;32.63;36.73
56630;BME280;42502;40.732;-74.254;2022-07-03T04:04:19;100464.22;;;32.61;36.84
56630;BME280;42502;40.732;-74.254;2022-07-03T04:06:22;100467.44;;;32.63;36.49
56630;BME280;42502;40.732;-74.254;2022-07-03T04:08:24;100460.94;;;32.62;36.78
56630;BME280;42502;40.732;-74.254;2022-07-03T04:10:25;100461.72;;;32.63;36.55
56630;BME280;42502;40.732;-74.254;2022-07-03T04:12:26;100467.53;;;32.59;36.63
56630;BME280;42502;40.732;-74.254;2022-07-03T04:14:27;100472.03;;;32.60;36.98
56630;BME280;42502;40.732;-74.254;2022-07-03T04:16:28;100470.41;;;32.59;36.67
56630;BME280;42502;40.732;-74.254;2022-07-03T04:18:29;100469.59;;;32.58;36.59
56630;BME280;42502;40.732;-74.254;2022-07-03T04:20:30;100467.09;;;32.61;36.56
56630;BME280;42502;40.732;-74.254;2022-07-03T04:22:31;100461.38;;;32.61;36.60
56630;BME280;42502;40.732;-74.254;2022-07-03T04:24:32;100464.69;;;32.59;36.54
56630;BME280;42502;40.732;-74.254;2022-07-03T04:26:33;100467.19;;;32.57;36.68
56630;BME280;42502;40.732;-74.254;2022-07-03T04:28:33;100466.75;;;32.58;36.54
56630;BME280;42502;40.732;-74.254;2022-07-03T04:30:34;100471.63;;;32.58;36.38
56630;BME280;42502;40.732;-74.254;2022-07-03T04:32:36;100459.84;;;32.56;36.30
56630;BME280;42502;40.732;-74.254;2022-07-03T04:34:37;100458.69;;;32.53;36.72
56630;BME280;42502;40.732;-74.254;2022-07-03T04:36:38;100471.19;;;32.59;36.77
56630;BME280;42502;40.732;-74.254;2022-07-03T04:38:38;100472.47;;;32.58;36.43
56630;BME280;42502;40.732;-74.254;2022-07-03T04:40:39;100467.25;;;32.53;36.55
56630;BME280;42502;40.732;-74.254;2022-07-03T04:42:40;100466.81;;;32.55;36.52
56630;BME280;42502;40.732;-74.254;2022-07-03T04:44:41;100461.47;;;32.57;36.04
56630;BME280;42502;40.732;-74.254;2022-07-03T04:46:42;100459.84;;;32.56;36.02
56630;BME280;42502;40.732;-74.254;2022-07-03T04:48:42;100459.84;;;32.56;36.24
56630;BME280;42502;40.732;-74.254;2022-07-03T04:50:43;100459.84;;;32.56;36.10
56630;BME280;42502;40.732;-74.254;2022-07-03T04:52:44;100455.91;;;32.50;36.42
56630;BME280;42502;40.732;-74.254;2022-07-03T04:54:45;100454.63;;;32.51;36.13
56630;BME280;42502;40.732;-74.254;2022-07-03T04:56:46;100473.75;;;32.54;36.29
56630;BME280;42502;40.732;-74.254;2022-07-03T04:58:46;100458.78;;;32.50;36.57
56630;BME280;42502;40.732;-74.254;2022-07-03T05:00:47;100462.88;;;32.49;35.89
56630;BME280;42502;40.732;-74.254;2022-07-03T05:02:48;100471.00;;;32.50;36.02
56630;BME280;42502;40.732;-74.254;2022-07-03T05:04:49;100475.84;;;32.53;35.87
56630;BME280;42502;40.732;-74.254;2022-07-03T05:06:50;100479.13;;;32.52;36.40
56630;BME280;42502;40.732;-74.254;2022-07-03T05:08:50;100469.75;;;32.51;36.02
56630;BME280;42502;40.732;-74.254;2022-07-03T05:10:51;100470.56;;;32.52;35.88
56630;BME280;42502;40.732;-74.254;2022-07-03T05:12:54;100457.50;;;32.51;36.38
56630;BME280;42502;40.732;-74.254;2022-07-03T05:14:54;100466.53;;;32.49;36.03
56630;BME280;42502;40.732;-74.254;2022-07-03T05:16:55;100463.31;;;32.47;36.24
56630;BME280;42502;40.732;-74.254;2022-07-03T05:18:56;100479.56;;;32.50;36.29
56630;BME280;42502;40.732;-74.254;2022-07-03T05:20:57;100468.94;;;32.51;36.37
56630;BME280;42502;40.732;-74.254;2022-07-03T05:23:01;100478.78;;;32.50;35.77
56630;BME280;42502;40.732;-74.254;2022-07-03T05:25:02;100462.13;;;32.45;35.83
56630;BME280;42502;40.732;-74.254;2022-07-03T05:27:03;100466.53;;;32.49;35.69
56630;BME280;42502;40.732;-74.254;2022-07-03T05:29:04;100468.22;;;32.47;35.73
56630;BME280;42502;40.732;-74.254;2022-07-03T05:31:05;100477.16;;;32.49;36.12
56630;BME280;42502;40.732;-74.254;2022-07-03T05:33:06;100475.19;;;32.46;35.73
56630;BME280;42502;40.732;-74.254;2022-07-03T05:35:07;100475.53;;;32.48;35.92
56630;BME280;42502;40.732;-74.254;2022-07-03T05:37:07;100461.78;;;32.42;35.94
56630;BME280;42502;40.732;-74.254;2022-07-03T05:39:08;100465.38;;;32.47;35.79
56630;BME280;42502;40.732;-74.254;2022-07-03T05:41:44;100466.59;;;32.46;35.91
56630;BME280;42502;40.732;-74.254;2022-07-03T05:43:46;100466.97;;;32.48;36.07
56630;BME280;42502;40.732;-74.254;2022-07-03T05:45:46;100465.81;;;32.45;35.68
56630;BME280;42502;40.732;-74.254;2022-07-03T05:47:47;100465.88;;;32.41;35.53
56630;BME280;42502;40.732;-74.254;2022-07-03T05:49:48;100465.88;;;32.41;35.72
56630;BME280;42502;40.732;-74.254;2022-07-03T05:51:49;100469.47;;;32.46;36.14
56630;BME280;42502;40.732;-74.254;2022-07-03T05:53:50;100475.19;;;32.46;35.59
56630;BME280;42502;40.732;-74.254;2022-07-03T05:55:50;100479.28;;;32.45;35.81
56630;BME280;42502;40.732;-74.254;2022-07-03T05:57:51;100481.34;;;32.44;35.81
56630;BME280;42502;40.732;-74.254;2022-07-03T05:59:52;100476.88;;;32.43;35.99
56630;BME280;42502;40.732;-74.254;2022-07-03T06:01:53;100476.88;;;32.43;35.56
56630;BME280;42502;40.732;-74.254;2022-07-03T06:03:54;100471.59;;;32.41;36.01
56630;BME280;42502;40.732;-74.254;2022-07-03T06:05:54;100463.56;;;32.36;35.64
56630;BME280;42502;40.732;-74.254;2022-07-03T06:07:55;100463.03;;;32.41;35.95
56630;BME280;42502;40.732;-74.254;2022-07-03T06:09:56;100460.16;;;32.41;36.10
56630;BME280;42502;40.732;-74.254;2022-07-03T06:11:57;100465.88;;;32.41;35.92
56630;BME280;42502;40.732;-74.254;2022-07-03T06:13:57;100464.28;;;32.40;35.71
56630;BME280;42502;40.732;-74.254;2022-07-03T06:15:58;100457.03;;;32.36;35.81
56630;BME280;42502;40.732;-74.254;2022-07-03T06:17:59;100467.16;;;32.40;35.86
56630;BME280;42502;40.732;-74.254;2022-07-03T06:20:00;100454.25;;;32.32;35.96
56630;BME280;42502;40.732;-74.254;2022-07-03T06:22:01;100451.75;;;32.34;35.70
56630;BME280;42502;40.732;-74.254;2022-07-03T06:24:01;100461.03;;;32.38;35.68
56630;BME280;42502;40.732;-74.254;2022-07-03T06:26:02;100455.06;;;32.33;35.59
56630;BME280;42502;40.732;-74.254;2022-07-03T06:28:03;100471.69;;;32.38;35.72
56630;BME280;42502;40.732;-74.254;2022-07-03T06:30:05;100448.97;;;32.31;35.86
56630;BME280;42502;40.732;-74.254;2022-07-03T06:32:06;100452.66;;;32.31;35.63
56630;BME280;42502;40.732;-74.254;2022-07-03T06:34:07;100455.78;;;32.37;35.49
56630;BME280;42502;40.732;-74.254;2022-07-03T06:36:08;100447.28;;;32.33;35.79
56630;BME280;42502;40.732;-74.254;2022-07-03T06:38:08;100454.19;;;32.36;35.93
56630;BME280;42502;40.732;-74.254;2022-07-03T06:40:10;100464.00;;;32.35;35.57
56630;BME280;42502;40.732;-74.254;2022-07-03T06:42:10;100463.19;;;32.34;35.45
56630;BME280;42502;40.732;-74.254;2022-07-03T06:44:11;100459.59;;;32.30;35.50
56630;BME280;42502;40.732;-74.254;2022-07-03T06:46:12;100469.34;;;32.33;35.92
56630;BME280;42502;40.732;-74.254;2022-07-03T06:48:13;100471.84;;;32.31;35.81
56630;BME280;42502;40.732;-74.254;2022-07-03T06:50:14;100472.66;;;32.31;35.82
56630;BME280;42502;40.732;-74.254;2022-07-03T06:52:15;100456.47;;;32.24;35.79
56630;BME280;42502;40.732;-74.254;2022-07-03T06:54:15;100466.13;;;32.31;35.45
56630;BME280;42502;40.732;-74.254;2022-07-03T06:56:16;100477.56;;;32.31;35.49
56630;BME280;42502;40.732;-74.254;2022-07-03T06:58:17;100462.91;;;32.29;35.59
56630;BME280;42502;40.732;-74.254;2022-07-03T07:00:18;100458.88;;;32.26;35.64
56630;BME280;42502;40.732;-74.254;2022-07-03T07:02:19;100462.13;;;32.28;35.56
56630;BME280;42502;40.732;-74.254;2022-07-03T07:04:20;100455.66;;;32.24;35.51
56630;BME280;42502;40.732;-74.254;2022-07-03T07:06:20;100451.13;;;32.27;35.39
56630;BME280;42502;40.732;-74.254;2022-07-03T07:08:21;100448.75;;;32.21;35.39
56630;BME280;42502;40.732;-74.254;2022-07-03T07:10:22;100459.69;;;32.27;35.44
56630;BME280;42502;40.732;-74.254;2022-07-03T07:12:23;100460.13;;;32.25;35.77
56630;BME280;42502;40.732;-74.254;2022-07-03T07:14:25;100458.06;;;32.26;35.88
56630;BME280;42502;40.732;-74.254;2022-07-03T07:16:26;100451.63;;;32.21;35.42
56630;BME280;42502;40.732;-74.254;2022-07-03T07:18:29;100440.28;;;32.18;35.50
56630;BME280;42502;40.732;-74.254;2022-07-03T07:20:30;100443.84;;;32.22;35.71
56630;BME280;42502;40.732;-74.254;2022-07-03T07:22:31;100451.19;;;32.23;35.51
56630;BME280;42502;40.732;-74.254;2022-07-03T07:24:32;100446.00;;;32.18;35.55
56630;BME280;42502;40.732;-74.254;2022-07-03T07:26:32;100458.13;;;32.22;35.55
56630;BME280;42502;40.732;-74.254;2022-07-03T07:28:33;100454.91;;;32.20;35.28
56630;BME280;42502;40.732;-74.254;2022-07-03T07:30:35;100445.16;;;32.17;35.63
56630;BME280;42502;40.732;-74.254;2022-07-03T07:32:36;100448.41;;;32.19;35.35
56630;BME280;42502;40.732;-74.254;2022-07-03T07:34:37;100435.81;;;32.17;35.39
56630;BME280;42502;40.732;-74.254;2022-07-03T07:36:38;100431.41;;;32.12;35.21
56630;BME280;42502;40.732;-74.254;2022-07-03T07:38:39;100430.53;;;32.15;35.66
56630;BME280;42502;40.732;-74.254;2022-07-03T07:40:40;100434.19;;;32.16;35.42
56630;BME280;42502;40.732;-74.254;2022-07-03T07:42:41;100437.03;;;32.16;35.43
56630;BME280;42502;40.732;-74.254;2022-07-03T07:44:43;100428.22;;;32.10;35.24
56630;BME280;42502;40.732;-74.254;2022-07-03T07:46:43;100432.59;;;32.15;35.34
56630;BME280;42502;40.732;-74.254;2022-07-03T07:48:44;100428.47;;;32.16;35.38
56630;BME280;42502;40.732;-74.254;2022-07-03T07:50:45;100419.53;;;32.14;35.48
56630;BME280;42502;40.732;-74.254;2022-07-03T07:52:46;100420.44;;;32.11;35.74
56630;BME280;42502;40.732;-74.254;2022-07-03T07:54:47;100422.41;;;32.14;35.61
56630;BME280;42502;40.732;-74.254;2022-07-03T07:56:48;100422.84;;;32.12;35.31
56630;BME280;42502;40.732;-74.254;2022-07-03T07:58:49;100418.38;;;32.11;35.42
56630;BME280;42502;40.732;-74.254;2022-07-03T08:00:50;100415.91;;;32.10;35.74
56630;BME280;42502;40.732;-74.254;2022-07-03T08:03:09;100413.50;;;32.08;35.64
56630;BME280;42502;40.732;-74.254;2022-07-03T08:05:28;100423.28;;;32.11;35.64
56630;BME280;42502;40.732;-74.254;2022-07-03T08:07:38;100424.94;;;32.08;35.45
56630;BME280;42502;40.732;-74.254;2022-07-03T08:09:39;100432.28;;;32.09;35.32
56630;BME280;42502;40.732;-74.254;2022-07-03T08:11:40;100435.13;;;32.09;35.46
56630;BME280;42502;40.732;-74.254;2022-07-03T08:13:41;100425.75;;;32.09;35.64
56630;BME280;42502;40.732;-74.254;2022-07-03T08:15:43;100426.19;;;32.07;35.72
56630;BME280;42502;40.732;-74.254;2022-07-03T08:17:44;100433.94;;;32.06;35.95
56630;BME280;42502;40.732;-74.254;2022-07-03T08:19:44;100424.28;;;32.00;35.38
56630;BME280;42502;40.732;-74.254;2022-07-03T08:21:45;100429.13;;;32.03;35.71
56630;BME280;42502;40.732;-74.254;2022-07-03T08:23:46;100431.53;;;32.05;35.40
56630;BME280;42502;40.732;-74.254;2022-07-03T08:25:47;100434.81;;;32.03;35.92
56630;BME280;42502;40.732;-74.254;2022-07-03T08:27:48;100430.72;;;32.04;35.67
56630;BME280;42502;40.732;-74.254;2022-07-03T08:29:49;100431.97;;;32.03;35.79
56630;BME280;42502;40.732;-74.254;2022-07-03T08:31:50;100429.13;;;32.03;35.88
56630;BME280;42502;40.732;-74.254;2022-07-03T08:33:51;100430.38;;;32.02;35.77
56630;BME280;42502;40.732;-74.254;2022-07-03T08:35:52;100422.31;;;31.97;35.66
56630;BME280;42502;40.732;-74.254;2022-07-03T08:37:53;100428.41;;;31.99;35.73
56630;BME280;42502;40.732;-74.254;2022-07-03T08:39:54;100425.16;;;31.97;35.84
56630;BME280;42502;40.732;-74.254;2022-07-03T08:41:56;100439.84;;;31.99;35.60
56630;BME280;42502;40.732;-74.254;2022-07-03T08:43:59;100423.56;;;31.96;35.42
56630;BME280;42502;40.732;-74.254;2022-07-03T08:46:00;100431.72;;;31.98;35.44
56630;BME280;42502;40.732;-74.254;2022-07-03T08:48:04;100427.13;;;32.00;35.43
56630;BME280;42502;40.732;-74.254;2022-07-03T08:50:06;100429.28;;;31.96;35.55
56630;BME280;42502;40.732;-74.254;2022-07-03T08:52:07;100437.84;;;31.96;35.83
56630;BME280;42502;40.732;-74.254;2022-07-03T08:54:10;100446.44;;;31.96;35.79
56630;BME280;42502;40.732;-74.254;2022-07-03T08:56:10;100456.16;;;31.99;35.58
56630;BME280;42502;40.732;-74.254;2022-07-03T08:58:13;100463.13;;;31.98;35.52
56630;BME280;42502;40.732;-74.254;2022-07-03T09:00:23;100469.28;;;31.96;35.54
56630;BME280;42502;40.732;-74.254;2022-07-03T09:02:25;100469.28;;;31.96;36.05
56630;BME280;42502;40.732;-74.254;2022-07-03T09:04:26;100481.94;;;31.95;35.89
56630;BME280;42502;40.732;-74.254;2022-07-03T09:06:27;100488.16;;;31.90;35.59
56630;BME280;42502;40.732;-74.254;2022-07-03T09:08:35;100496.66;;;31.94;35.74
56630;BME280;42502;40.732;-74.254;2022-07-03T09:10:37;100497.91;;;31.93;36.03
56630;BME280;42502;40.732;-74.254;2022-07-03T09:12:40;100506.47;;;31.93;35.96
56630;BME280;42502;40.732;-74.254;2022-07-03T09:14:45;100496.38;;;31.88;35.97
56630;BME280;42502;40.732;-74.254;2022-07-03T09:16:48;100506.47;;;31.93;36.01
56630;BME280;42502;40.732;-74.254;2022-07-03T09:18:49;100502.06;;;31.88;35.70
56630;BME280;42502;40.732;-74.254;2022-07-03T09:21:02;100497.97;;;31.89;35.91
56630;BME280;42502;40.732;-74.254;2022-07-03T09:23:14;100495.94;;;31.89;36.01
56630;BME280;42502;40.732;-74.254;2022-07-03T09:25:15;100502.50;;;31.86;35.76
56630;BME280;42502;40.732;-74.254;2022-07-03T09:27:18;100510.22;;;31.89;35.58
56630;BME280;42502;40.732;-74.254;2022-07-03T09:29:19;100504.56;;;31.86;35.99
56630;BME280;42502;40.732;-74.254;2022-07-03T09:33:22;100517.59;;;31.87;36.13
56630;BME280;42502;40.732;-74.254;2022-07-03T09:35:27;100518.84;;;31.86;36.15
56630;BME280;42502;40.732;-74.254;2022-07-03T09:37:27;100512.75;;;31.84;35.77
56630;BME280;42502;40.732;-74.254;2022-07-03T09:39:36;100517.31;;;31.81;36.14
56630;BME280;42502;40.732;-74.254;2022-07-03T09:41:58;100527.47;;;31.82;35.71
56630;BME280;42502;40.732;-74.254;2022-07-03T09:43:59;100522.19;;;31.81;36.04
56630;BME280;42502;40.732;-74.254;2022-07-03T09:46:01;100534.00;;;31.83;36.06
56630;BME280;42502;40.732;-74.254;2022-07-03T09:48:02;100530.31;;;31.82;35.78
56630;BME280;42502;40.732;-74.254;2022-07-03T09:50:03;100525.94;;;31.78;36.08
56630;BME280;42502;40.732;-74.254;2022-07-03T09:52:06;100542.19;;;31.81;36.20
56630;BME280;42502;40.732;-74.254;2022-07-03T09:54:07;100543.06;;;31.78;36.05
56630;BME280;42502;40.732;-74.254;2022-07-03T09:56:07;100538.97;;;31.79;36.06
56630;BME280;42502;40.732;-74.254;2022-07-03T09:58:08;100553.25;;;31.79;36.13
56630;BME280;42502;40.732;-74.254;2022-07-03T10:02:14;100558.59;;;31.77;35.89
56630;BME280;42502;40.732;-74.254;2022-07-03T10:04:22;100563.06;;;31.78;35.87
56630;BME280;42502;40.732;-74.254;2022-07-03T10:06:23;100564.31;;;31.77;36.24
56630;BME280;42502;40.732;-74.254;2022-07-03T10:08:24;100561.16;;;31.71;36.28
56630;BME280;42502;40.732;-74.254;2022-07-03T10:10:27;100563.50;;;31.76;36.16
56630;BME280;42502;40.732;-74.254;2022-07-03T10:12:29;100566.34;;;31.76;36.06
56630;BME280;42502;40.732;-74.254;2022-07-03T10:14:31;100572.06;;;31.76;35.95
56630;BME280;42502;40.732;-74.254;2022-07-03T10:16:32;100572.22;;;31.69;35.86
56630;BME280;42502;40.732;-74.254;2022-07-03T10:18:36;100585.19;;;31.74;36.16
56630;BME280;42502;40.732;-74.254;2022-07-03T10:22:45;100581.56;;;31.69;36.22
56630;BME280;42502;40.732;-74.254;2022-07-03T10:24:48;100593.75;;;31.74;36.00
56630;BME280;42502;40.732;-74.254;2022-07-03T10:26:50;100588.91;;;31.70;36.35
56630;BME280;42502;40.732;-74.254;2022-07-03T10:28:52;100582.44;;;31.66;36.50
56630;BME280;42502;40.732;-74.254;2022-07-03T10:30:54;100587.66;;;31.71;36.20
56630;BME280;42502;40.732;-74.254;2022-07-03T10:32:56;100572.69;;;31.64;35.88
56630;BME280;42502;40.732;-74.254;2022-07-03T10:34:57;100575.84;;;31.69;35.77
56630;BME280;42502;40.732;-74.254;2022-07-03T10:37:02;100586.50;;;31.69;36.03
56630;BME280;42502;40.732;-74.254;2022-07-03T10:39:06;100593.00;;;31.69;36.15
56630;BME280;42502;40.732;-74.254;2022-07-03T10:43:59;100604.41;;;31.69;35.73
56630;BME280;42502;40.732;-74.254;2022-07-03T10:46:22;100596.34;;;31.64;36.16
56630;BME280;42502;40.732;-74.254;2022-07-03T10:51:16;100602.06;;;31.64;35.85
56630;BME280;42502;40.732;-74.254;2022-07-03T10:53:23;100605.72;;;31.65;36.07
56630;BME280;42502;40.732;-74.254;2022-07-03T10:55:30;100615.09;;;31.65;36.33
56630;BME280;42502;40.732;-74.254;2022-07-03T10:57:31;100607.78;;;31.64;36.29
56630;BME280;42502;40.732;-74.254;2022-07-03T11:01:32;100602.19;;;31.57;35.95